Time;durP1;ratioP1;P1;durP2;ratioP2;P2;SDS_P1;SDS_P2;PMS_P1;PMS_P2;Temp;Humidity;BMP_temperature;BMP_pressure;BME280_temperature;BME280_humidity;BME280_pressure;Samples;Min_cycle;Max_cycle;Signal;HPM_P1;HPM_P2
2023/12/26 00:02:07;;;;;;;3.42;2.88;;;;;;;8.70;100.00;100440.19;5027874;28;20048;-86
2023/12/26 00:04:33;;;;;;;6.80;3.08;;;;;;;8.68;100.00;100431.44;5021735;28;20237;-85
2023/12/26 00:06:58;;;;;;;5.25;3.33;;;;;;;8.78;100.00;100460.16;5022519;28;20439;-83
2023/12/26 00:09:24;;;;;;;5.70;3.28;;;;;;;8.77;100.00;100463.78;5022168;28;20037;-84
2023/12/26 00:11:49;;;;;;;4.90;3.40;;;;;;;8.48;100.00;100413.00;5018845;28;20124;-86
2023/12/26 00:14:18;;;;;;;5.13;3.33;;;;;;;8.68;100.00;100460.63;5017524;28;20089;-84
2023/12/26 00:16:44;;;;;;;5.60;3.90;;;;;;;8.63;100.00;100446.75;5023679;28;20037;-85
2023/12/26 00:19:10;;;;;;;5.20;3.42;;;;;;;8.72;100.00;100462.19;5022809;28;20120;-85
2023/12/26 00:21:39;;;;;;;4.25;3.72;;;;;;;8.71;100.00;100454.31;5021161;28;21021;-86
2023/12/26 00:24:05;;;;;;;5.45;3.85;;;;;;;8.69;100.00;100458.84;5022609;28;20030;-85
2023/12/26 00:26:31;;;;;;;5.53;3.80;;;;;;;8.52;100.00;100427.81;5023991;28;20060;-85
2023/12/26 00:28:56;;;;;;;4.45;3.67;;;;;;;8.66;100.00;100453.69;5013663;28;20476;-84
2023/12/26 00:31:22;;;;;;;4.70;3.80;;;;;;;8.20;100.00;100368.41;5024954;28;20044;-84
2023/12/26 00:33:53;;;;;;;6.10;4.22;;;;;;;8.59;100.00;100441.66;5025087;28;20463;-85
2023/12/26 00:36:18;;;;;;;5.53;3.95;;;;;;;8.67;100.00;100452.75;5010531;28;20069;-84
2023/12/26 00:38:45;;;;;;;6.28;4.20;;;;;;;8.56;100.00;100432.03;5020519;28;20139;-84
2023/12/26 00:41:12;;;;;;;5.72;4.28;;;;;;;8.57;100.00;100438.22;5028645;28;20510;-85
2023/12/26 00:43:37;;;;;;;4.70;4.20;;;;;;;8.65;100.00;100452.84;5027106;28;20041;-85
2023/12/26 00:46:03;;;;;;;5.57;4.80;;;;;;;8.65;100.00;100450.19;5020262;28;20033;-84
2023/12/26 00:48:28;;;;;;;5.60;4.65;;;;;;;8.64;100.00;100452.91;5024693;28;20037;-84
2023/12/26 00:50:54;;;;;;;5.25;4.72;;;;;;;8.57;100.00;100439.09;5022463;28;20032;-83
2023/12/26 00:53:19;;;;;;;5.65;5.15;;;;;;;8.59;100.00;100444.31;5023293;28;20591;-83
2023/12/26 00:55:44;;;;;;;5.00;4.40;;;;;;;8.46;100.00;100436.94;5039686;28;20026;-82
2023/12/26 00:58:10;;;;;;;5.22;4.43;;;;;;;8.57;100.00;100451.47;5023903;28;20108;-83
2023/12/26 01:00:35;;;;;;;5.03;4.40;;;;;;;8.63;100.00;100467.09;5023029;28;20038;-83
2023/12/26 01:03:01;;;;;;;5.10;4.60;;;;;;;8.55;100.00;100466.63;5023652;28;20087;-84
2023/12/26 01:05:27;;;;;;;5.50;4.40;;;;;;;8.57;100.00;100464.72;5026381;28;20599;-84
2023/12/26 01:07:52;;;;;;;5.40;4.20;;;;;;;8.60;100.00;100468.09;5022448;28;20033;-84
2023/12/26 01:10:17;;;;;;;6.80;4.32;;;;;;;8.48;100.00;100458.97;5022313;28;20040;-84
2023/12/26 01:12:43;;;;;;;5.72;4.85;;;;;;;8.35;100.00;100441.88;5018404;28;20033;-84
2023/12/26 01:15:09;;;;;;;4.68;4.05;;;;;;;8.53;100.00;100476.44;5017610;28;20046;-84
2023/12/26 01:17:34;;;;;;;4.20;3.70;;;;;;;8.57;100.00;100481.53;5017445;28;20034;-84
2023/12/26 01:20:00;;;;;;;4.60;3.78;;;;;;;8.58;100.00;100475.28;5029299;28;20119;-84
2023/12/26 01:22:25;;;;;;;4.95;3.90;;;;;;;8.59;100.00;100481.44;5031707;28;20041;-84
2023/12/26 01:24:51;;;;;;;4.68;3.75;;;;;;;8.58;100.00;100482.41;5019397;28;20034;-84
2023/12/26 01:27:16;;;;;;;3.70;3.40;;;;;;;8.56;100.00;100466.53;5018124;28;20131;-84
2023/12/26 01:29:42;;;;;;;3.60;3.30;;;;;;;8.58;100.00;100482.41;5019177;28;20030;-85
2023/12/26 01:32:07;;;;;;;3.78;3.47;;;;;;;8.57;100.00;100480.66;5012663;28;20503;-84
2023/12/26 01:34:33;;;;;;;3.90;3.53;;;;;;;8.57;100.00;100494.81;5023206;28;20076;-83
2023/12/26 01:36:58;;;;;;;3.30;3.00;;;;;;;8.58;100.00;100495.66;5021204;28;20030;-83
2023/12/26 01:39:26;;;;;;;3.45;3.15;;;;;;;8.58;100.00;100493.88;5015853;28;20500;-82
2023/12/26 01:41:51;;;;;;;4.95;3.20;;;;;;;8.57;100.00;100508.06;5022355;28;20040;-83
2023/12/26 01:44:17;;;;;;;3.50;3.20;;;;;;;8.57;100.00;100504.53;5018092;28;20108;-84
2023/12/26 01:46:42;;;;;;;3.17;2.92;;;;;;;8.56;100.00;100500.16;5008185;28;20187;-83
2023/12/26 01:49:09;;;;;;;3.60;3.30;;;;;;;8.57;100.00;100504.53;5032239;28;20037;-83
2023/12/26 01:51:34;;;;;;;3.20;3.00;;;;;;;8.58;100.00;100516.88;5018733;28;20125;-84
2023/12/26 01:54:02;;;;;;;4.00;3.10;;;;;;;8.45;100.00;100495.38;5025406;28;20042;-84
2023/12/26 01:56:29;;;;;;;3.60;3.30;;;;;;;8.55;100.00;100509.06;5023010;28;20038;-83
2023/12/26 01:58:55;;;;;;;4.00;3.10;;;;;;;8.42;100.00;100498.19;5032645;28;20029;-84
2023/12/26 02:01:20;;;;;;;2.97;2.78;;;;;;;8.55;100.00;100514.38;5021382;28;20038;-84
2023/12/26 02:03:46;;;;;;;2.85;2.65;;;;;;;8.55;100.00;100517.88;5022111;28;20034;-83
2023/12/26 02:06:13;;;;;;;3.45;2.85;;;;;;;8.54;100.00;100533.88;5015738;28;20053;-83
2023/12/26 02:08:40;;;;;;;3.15;2.92;;;;;;;8.54;100.00;100524.13;5022834;28;20048;-84
2023/12/26 02:11:06;;;;;;;3.28;2.88;;;;;;;8.53;100.00;100519.75;5018240;28;20036;-84
2023/12/26 02:13:33;;;;;;;3.25;2.95;;;;;;;8.52;100.00;100525.13;5033193;28;20036;-84
2023/12/26 02:16:06;;;;;;;3.30;3.00;;;;;;;8.53;100.00;100527.72;5028341;28;20069;-84
2023/12/26 02:18:31;;;;;;;3.10;2.80;;;;;;;8.53;100.00;100534.78;5016085;28;20128;-83
2023/12/26 02:20:56;;;;;;;3.53;3.17;;;;;;;8.52;100.00;100533.94;5023362;28;20113;-83
2023/12/26 02:23:25;;;;;;;3.88;3.20;;;;;;;8.50;100.00;100538.47;5033130;28;20033;-84
2023/12/26 02:25:51;;;;;;;3.05;2.80;;;;;;;8.45;100.00;100535.16;5026517;28;20044;-84
2023/12/26 02:28:16;;;;;;;3.13;2.83;;;;;;;8.39;100.00;100525.69;5021175;28;20044;-84
2023/12/26 02:30:43;;;;;;;2.95;2.75;;;;;;;8.51;100.00;100550.78;5030024;28;20030;-84
2023/12/26 02:33:09;;;;;;;3.42;2.83;;;;;;;8.54;100.00;100549.78;5049704;28;20115;-83
2023/12/26 02:35:35;;;;;;;3.03;2.70;;;;;;;8.52;100.00;100563.09;5027573;28;20080;-84
2023/12/26 02:38:01;;;;;;;2.92;2.70;;;;;;;8.49;100.00;100539.41;5029484;28;20443;-83
2023/12/26 02:40:26;;;;;;;2.92;2.72;;;;;;;8.51;100.00;100548.13;5026922;28;21147;-83
2023/12/26 02:42:52;;;;;;;2.90;2.70;;;;;;;8.51;100.00;100547.28;5018719;28;20485;-83
2023/12/26 02:45:17;;;;;;;2.90;2.70;;;;;;;8.44;100.00;100544.91;5028347;28;20057;-84
2023/12/26 02:47:43;;;;;;;2.95;2.38;;;;;;;8.50;100.00;100534.94;5022033;28;20365;-84
2023/12/26 02:50:08;;;;;;;3.67;2.60;;;;;;;8.42;100.00;100535.31;5042830;28;20665;-84
2023/12/26 02:52:34;;;;;;;2.42;2.10;;;;;;;8.50;100.00;100548.22;5029901;28;20049;-84
2023/12/26 02:54:59;;;;;;;2.67;1.90;;;;;;;8.50;100.00;100541.13;5029833;28;20120;-84
2023/12/26 02:57:24;;;;;;;2.83;2.55;;;;;;;8.49;100.00;100531.44;5019824;28;20042;-84
2023/12/26 02:59:50;;;;;;;2.55;2.20;;;;;;;8.36;100.00;100514.31;5015565;28;20042;-84
2023/12/26 03:02:18;;;;;;;2.33;2.13;;;;;;;8.48;100.00;100538.53;5024504;28;20408;-83
2023/12/26 03:04:43;;;;;;;2.60;2.40;;;;;;;8.48;100.00;100545.63;5022481;28;20036;-83
2023/12/26 03:07:08;;;;;;;2.85;2.30;;;;;;;8.47;100.00;100543.91;5018451;28;20113;-84
2023/12/26 03:09:34;;;;;;;3.03;2.83;;;;;;;8.50;100.00;100550.88;5017783;28;20038;-84
2023/12/26 03:11:59;;;;;;;3.40;2.90;;;;;;;8.47;100.00;100557.16;5044588;28;20033;-84
2023/12/26 03:14:25;;;;;;;3.80;2.90;;;;;;;8.48;100.00;100582.75;5055774;28;20068;-84
2023/12/26 03:16:50;;;;;;;4.00;3.70;;;;;;;8.46;100.00;100569.56;5042162;28;20075;-84
2023/12/26 03:19:15;;;;;;;3.72;3.42;;;;;;;8.31;100.00;100546.38;5038516;28;20030;-85
2023/12/26 03:21:41;;;;;;;5.20;4.65;;;;;;;8.36;100.00;100576.22;5035315;28;20128;-84
2023/12/26 03:24:06;;;;;;;6.20;4.80;;;;;;;8.30;100.00;100557.91;5029443;28;20360;-85
2023/12/26 03:26:32;;;;;;;7.20;6.07;;;;;;;8.47;100.00;100587.19;5038535;28;20124;-85
2023/12/26 03:28:58;;;;;;;7.03;6.32;;;;;;;8.36;100.00;100580.63;5033685;28;20624;-85
2023/12/26 03:31:23;;;;;;;7.60;6.43;;;;;;;8.37;100.00;100587.72;5020001;28;20543;-84
2023/12/26 03:33:48;;;;;;;7.72;6.32;;;;;;;8.37;100.00;100591.22;5025619;28;20120;-85
2023/12/26 03:36:14;;;;;;;7.10;6.40;;;;;;;8.36;100.00;100586.81;5024602;28;20025;-84
2023/12/26 03:38:40;;;;;;;7.40;6.47;;;;;;;8.27;100.00;100597.81;5023703;28;20767;-85
2023/12/26 03:41:05;;;;;;;9.73;6.70;;;;;;;8.26;100.00;100589.94;5015813;28;20041;-86
2023/12/26 03:43:30;;;;;;;8.55;6.80;;;;;;;8.09;100.00;100573.00;5023403;28;20029;-85
2023/12/26 03:45:56;;;;;;;7.57;6.78;;;;;;;8.18;100.00;100593.78;5028253;28;20132;-85
2023/12/26 03:48:21;;;;;;;9.30;6.38;;;;;;;8.10;100.00;100580.03;5020550;28;20045;-85
2023/12/26 03:50:46;;;;;;;7.22;6.50;;;;;;;7.90;100.00;100562.38;5028332;28;20124;-85
2023/12/26 03:53:12;;;;;;;9.00;6.85;;;;;;;8.08;100.00;100578.38;5015668;28;20049;-85
2023/12/26 03:55:37;;;;;;;7.53;6.75;;;;;;;8.13;100.00;100598.44;5020889;28;20111;-85
2023/12/26 03:58:03;;;;;;;9.05;6.70;;;;;;;8.06;100.00;100588.19;5017246;28;20042;-85
2023/12/26 04:00:29;;;;;;;8.82;6.40;;;;;;;8.07;100.00;100582.81;5013356;28;20063;-85
2023/12/26 04:02:55;;;;;;;9.40;6.35;;;;;;;8.20;100.00;100612.31;5014443;28;20096;-85
2023/12/26 04:05:20;;;;;;;9.85;6.78;;;;;;;8.07;100.00;100581.94;5019892;28;20533;-85
2023/12/26 04:07:46;;;;;;;8.73;6.88;;;;;;;8.17;100.00;100615.94;5027432;28;20029;-85
2023/12/26 04:10:11;;;;;;;10.50;7.10;;;;;;;8.19;100.00;100618.50;5022378;28;20124;-85
2023/12/26 04:12:37;;;;;;;9.73;7.20;;;;;;;8.20;100.00;100628.22;5027423;28;20752;-85
2023/12/26 04:15:03;;;;;;;10.38;7.53;;;;;;;8.21;100.00;100640.53;5015182;28;20042;-84
2023/12/26 04:17:28;;;;;;;10.65;7.55;;;;;;;8.23;100.00;100643.97;5021990;28;20025;-85
2023/12/26 04:19:54;;;;;;;11.25;7.55;;;;;;;8.22;100.00;100642.25;5023546;28;20219;-85
2023/12/26 04:22:19;;;;;;;10.23;7.25;;;;;;;8.16;100.00;100623.97;5020779;28;20498;-85
2023/12/26 04:24:45;;;;;;;11.75;7.80;;;;;;;8.18;100.00;100633.56;5026463;28;20026;-85
2023/12/26 04:27:10;;;;;;;11.50;7.63;;;;;;;8.20;100.00;100652.06;5017385;28;20594;-83
2023/12/26 04:29:35;;;;;;;14.52;7.10;;;;;;;8.01;100.00;100617.53;5027406;28;20044;-85
2023/12/26 04:32:01;;;;;;;10.82;7.47;;;;;;;8.16;100.00;100631.91;5022650;28;20116;-85
2023/12/26 04:34:26;;;;;;;13.55;7.13;;;;;;;8.25;100.00;100644.78;5015604;28;20534;-85
2023/12/26 04:36:52;;;;;;;12.45;7.10;;;;;;;8.07;100.00;100622.59;5024652;28;20402;-85
2023/12/26 04:39:17;;;;;;;11.73;6.93;;;;;;;8.27;100.00;100647.34;5043307;28;20175;-85
2023/12/26 04:41:46;;;;;;;13.13;6.93;;;;;;;8.27;100.00;100650.00;5039482;28;20475;-85
2023/12/26 04:44:11;;;;;;;11.63;7.43;;;;;;;8.30;100.00;100648.06;5030503;28;20037;-84
2023/12/26 04:46:36;;;;;;;13.57;7.07;;;;;;;8.30;100.00;100655.16;5022201;28;20036;-84
2023/12/26 04:49:02;;;;;;;15.13;6.60;;;;;;;8.34;100.00;100662.06;5026493;28;20033;-85
2023/12/26 04:51:29;;;;;;;14.45;6.50;;;;;;;8.34;100.00;100684.13;5026635;28;20113;-84
2023/12/26 04:53:56;;;;;;;13.45;6.20;;;;;;;8.23;100.00;100666.06;5042548;28;20036;-84
2023/12/26 04:56:21;;;;;;;11.82;5.55;;;;;;;8.26;100.00;100669.50;5024624;28;20831;-84
2023/12/26 04:58:52;;;;;;;13.88;5.28;;;;;;;7.99;100.00;100646.78;5026177;28;20463;-84
2023/12/26 05:01:18;;;;;;;15.18;4.80;;;;;;;8.20;100.00;100699.78;5021494;28;20026;-84
2023/12/26 05:03:44;;;;;;;18.73;4.63;;;;;;;8.11;100.00;100703.72;5025720;28;20030;-84
2023/12/26 05:06:10;;;;;;;16.80;5.07;;;;;;;7.91;100.00;100687.78;5027504;28;20043;-84
2023/12/26 05:08:40;;;;;;;10.77;4.35;;;;;;;7.97;100.00;100712.22;5025417;28;20029;-84
2023/12/26 05:11:06;;;;;;;13.75;4.15;;;;;;;7.93;100.00;100723.88;5025082;28;20041;-84
2023/12/26 05:13:33;;;;;;;14.27;4.80;;;;;;;7.90;100.00;100728.44;5018870;28;20056;-84
2023/12/26 05:16:05;;;;;;;10.90;4.22;;;;;;;7.84;100.00;100718.97;5028522;28;20042;-85
2023/12/26 05:18:31;;;;;;;14.68;3.72;;;;;;;7.78;100.00;100723.69;5021415;28;20033;-84
2023/12/26 05:20:58;;;;;;;12.70;3.88;;;;;;;7.77;100.00;100719.28;5023912;28;20030;-84
2023/12/26 05:23:24;;;;;;;13.00;3.50;;;;;;;7.60;100.00;100691.69;5026422;28;20042;-84
2023/12/26 05:25:49;;;;;;;16.08;4.18;;;;;;;7.72;100.00;100722.97;5033957;28;20118;-84
2023/12/26 05:28:14;;;;;;;12.07;3.75;;;;;;;7.70;100.00;100734.59;5023110;28;20080;-84
2023/12/26 05:30:40;;;;;;;12.00;3.75;;;;;;;7.64;100.00;100750.69;5024891;28;20037;-84
2023/12/26 05:33:05;;;;;;;10.35;3.85;;;;;;;7.60;100.00;100743.81;5027100;28;20065;-84
2023/12/26 05:35:31;;;;;;;16.48;3.65;;;;;;;7.55;100.00;100751.06;5028691;28;20126;-85
2023/12/26 05:37:56;;;;;;;9.43;3.00;;;;;;;7.47;100.00;100768.13;5025414;28;20037;-84
2023/12/26 05:40:21;;;;;;;10.85;3.20;;;;;;;7.38;100.00;100754.41;5028138;28;20021;-84
2023/12/26 05:42:47;;;;;;;9.23;2.75;;;;;;;7.41;100.00;100767.53;5019482;28;20030;-85
2023/12/26 05:45:13;;;;;;;14.00;3.97;;;;;;;7.31;100.00;100755.53;5030567;28;20482;-85
2023/12/26 05:47:39;;;;;;;10.23;3.17;;;;;;;7.26;100.00;100776.03;5025286;28;20048;-85
2023/12/26 05:50:05;;;;;;;12.38;2.80;;;;;;;7.30;100.00;100781.16;5033842;28;20037;-84
2023/12/26 05:52:31;;;;;;;8.75;2.78;;;;;;;7.19;100.00;100792.19;5019652;28;20107;-84
2023/12/26 05:54:56;;;;;;;9.50;2.55;;;;;;;7.19;100.00;100801.88;5032276;28;20040;-85
2023/12/26 05:57:21;;;;;;;10.50;2.55;;;;;;;7.00;100.00;100793.78;5040693;28;20034;-85
2023/12/26 05:59:47;;;;;;;9.00;2.70;;;;;;;7.13;100.00;100818.84;5019397;28;20515;-85
2023/12/26 06:02:12;;;;;;;8.15;2.40;;;;;;;7.08;100.00;100820.81;5025490;28;20227;-85
2023/12/26 06:04:37;;;;;;;10.63;3.22;;;;;;;7.06;100.00;100816.50;5043098;28;20111;-84
2023/12/26 06:07:03;;;;;;;13.38;3.35;;;;;;;7.06;100.00;100832.38;5031650;28;20480;-84
2023/12/26 06:09:32;;;;;;;9.63;3.15;;;;;;;6.97;100.00;100822.97;5032581;28;20033;-84
2023/12/26 06:11:58;;;;;;;9.70;2.67;;;;;;;6.83;100.00;100794.38;5028495;28;20037;-85
2023/12/26 06:14:24;;;;;;;9.38;3.00;;;;;;;7.02;100.00;100833.41;5030672;28;20052;-85
2023/12/26 06:16:50;;;;;;;9.18;2.28;;;;;;;6.90;100.00;100838.22;5029270;28;20038;-84
2023/12/26 06:19:15;;;;;;;7.47;2.60;;;;;;;6.89;100.00;100857.66;5023355;28;20041;-84
2023/12/26 06:21:41;;;;;;;10.30;2.50;;;;;;;6.86;100.00;100862.22;5017760;28;20783;-84
2023/12/26 06:24:08;;;;;;;7.78;2.67;;;;;;;6.84;100.00;100867.53;5021797;28;20075;-85
2023/12/26 06:26:33;;;;;;;10.82;2.90;;;;;;;6.84;100.00;100869.31;5041030;28;20018;-83
2023/12/26 06:29:02;;;;;;;4.35;2.40;;;;;;;6.68;100.00;100866.34;5026974;28;20030;-85
2023/12/26 06:31:27;;;;;;;11.75;2.88;;;;;;;6.71;100.00;100875.03;5029676;28;20041;-85
2023/12/26 06:33:52;;;;;;;9.05;2.63;;;;;;;6.73;100.00;100880.28;5018038;28;20042;-85
2023/12/26 06:36:18;;;;;;;9.93;2.60;;;;;;;6.68;100.00;100892.78;5027817;28;20067;-85
2023/12/26 06:38:43;;;;;;;7.43;2.80;;;;;;;6.69;100.00;100905.13;5038816;28;20037;-85
2023/12/26 06:41:10;;;;;;;8.32;2.45;;;;;;;6.52;100.00;100879.25;5035807;28;20041;-85
2023/12/26 06:43:36;;;;;;;7.70;2.55;;;;;;;6.45;100.00;100870.63;5024488;28;20459;-85
2023/12/26 06:46:04;;;;;;;7.60;2.67;;;;;;;6.53;100.00;100898.63;5026468;28;20041;-85
2023/12/26 06:48:32;;;;;;;13.15;2.75;;;;;;;6.54;100.00;100898.56;5028102;28;20041;-85
2023/12/26 06:50:57;;;;;;;10.20;2.58;;;;;;;6.47;100.00;100897.00;5029969;28;20041;-84
2023/12/26 06:53:23;;;;;;;7.60;2.95;;;;;;;6.39;100.00;100886.69;5022293;28;20045;-84
2023/12/26 06:55:48;;;;;;;8.20;2.80;;;;;;;6.51;100.00;100906.56;5023417;28;20106;-84
2023/12/26 06:58:14;;;;;;;7.32;2.70;;;;;;;6.38;100.00;100902.59;5037839;28;20033;-85
2023/12/26 07:00:39;;;;;;;9.85;2.75;;;;;;;6.44;100.00;100918.28;5026752;28;20072;-84
2023/12/26 07:03:04;;;;;;;8.27;2.83;;;;;;;6.40;100.00;100917.53;5024135;28;20116;-84
2023/12/26 07:05:31;;;;;;;8.82;2.75;;;;;;;6.30;100.00;100897.56;5015368;28;20083;-84
2023/12/26 07:07:56;;;;;;;7.35;2.42;;;;;;;6.37;100.00;100928.19;5026293;28;20079;-84
2023/12/26 07:10:21;;;;;;;7.53;2.75;;;;;;;6.35;100.00;100939.72;5026715;28;20396;-84
2023/12/26 07:12:47;;;;;;;7.97;2.20;;;;;;;6.33;100.00;100944.19;5022103;28;20045;-83
2023/12/26 07:15:12;;;;;;;8.68;2.53;;;;;;;6.30;100.00;100945.16;5022903;28;20534;-85
2023/12/26 07:17:37;;;;;;;7.07;2.15;;;;;;;6.20;100.00;100946.38;5035006;28;20503;-84
2023/12/26 07:20:03;;;;;;;10.93;2.65;;;;;;;6.21;100.00;100966.59;5020051;28;20033;-84
2023/12/26 07:22:29;;;;;;;9.18;2.47;;;;;;;6.04;100.00;100942.47;5032712;28;20396;-85
2023/12/26 07:24:54;;;;;;;8.27;2.50;;;;;;;6.17;100.00;100970.25;5032037;28;20491;-84
2023/12/26 07:27:20;;;;;;;8.52;2.50;;;;;;;5.95;100.00;100955.03;5038432;28;20037;-84
2023/12/26 07:29:45;;;;;;;9.20;2.88;;;;;;;6.00;100.00;100954.91;5032321;28;20030;-85
2023/12/26 07:32:11;;;;;;;13.85;2.65;;;;;;;6.06;100.00;100980.25;5025282;28;20098;-83
2023/12/26 07:34:40;;;;;;;11.88;2.70;;;;;;;5.98;100.00;100965.53;5035067;28;20045;-84
2023/12/26 07:37:07;;;;;;;11.80;3.28;;;;;;;6.09;100.00;100981.03;5056115;28;20036;-85
2023/12/26 07:39:32;;;;;;;9.00;2.45;;;;;;;6.16;100.00;100982.59;5034850;28;20042;-84
2023/12/26 07:42:00;;;;;;;5.80;2.20;;;;;;;6.14;100.00;100980.91;5032674;28;20026;-84
2023/12/26 07:44:26;;;;;;;7.28;2.60;;;;;;;6.10;100.00;100982.75;5028657;28;20037;-84
2023/12/26 07:46:51;;;;;;;8.88;2.75;;;;;;;6.16;100.00;101002.88;5047829;28;20169;-84
2023/12/26 07:49:17;;;;;;;9.20;3.03;;;;;;;6.25;100.00;101007.88;5025062;28;20063;-84
2023/12/26 07:51:42;;;;;;;7.60;2.80;;;;;;;6.24;100.00;101017.59;5030443;28;20095;-84
2023/12/26 07:54:08;;;;;;;5.93;2.50;;;;;;;6.25;100.00;101018.44;5023656;28;20553;-83
2023/12/26 07:56:33;;;;;;;8.43;2.55;;;;;;;6.31;100.00;101036.78;5007414;28;20482;-84
2023/12/26 07:58:59;;;;;;;9.93;2.90;;;;;;;6.12;100.00;101017.94;5025261;28;20033;-84
2023/12/26 08:01:26;;;;;;;12.55;3.25;;;;;;;6.18;100.00;101030.09;5029421;28;20084;-84
2023/12/26 08:03:52;;;;;;;7.60;2.60;;;;;;;6.06;100.00;101031.34;5016683;28;20033;-84
2023/12/26 08:06:17;;;;;;;11.05;3.10;;;;;;;6.24;100.00;101049.31;5025507;28;20400;-84
2023/12/26 08:08:43;;;;;;;8.27;2.63;;;;;;;6.23;100.00;101057.28;5003668;28;20649;-84
2023/12/26 08:11:08;;;;;;;10.43;3.17;;;;;;;5.96;100.00;101021.94;5028518;28;20053;-84
2023/12/26 08:13:33;;;;;;;7.60;2.75;;;;;;;6.17;100.00;101062.75;5025915;28;20061;-85
2023/12/26 08:15:59;;;;;;;10.68;3.08;;;;;;;6.13;100.00;101061.09;5026369;28;20029;-84
2023/12/26 08:18:24;;;;;;;13.13;2.97;;;;;;;6.07;100.00;101071.84;5025832;28;20063;-85
2023/12/26 08:20:49;;;;;;;13.23;3.42;;;;;;;6.10;100.00;101079.66;5030643;28;20044;-85
2023/12/26 08:23:15;;;;;;;10.50;3.25;;;;;;;6.13;100.00;101080.47;5027853;28;20452;-85
2023/12/26 08:25:40;;;;;;;7.88;2.90;;;;;;;6.14;100.00;101083.97;5007585;28;20029;-85
2023/12/26 08:28:06;;;;;;;8.13;2.90;;;;;;;6.11;100.00;101094.63;5024991;28;20090;-85
2023/12/26 08:30:32;;;;;;;9.38;2.80;;;;;;;5.94;100.00;101066.06;5023656;28;20036;-85
2023/12/26 08:32:57;;;;;;;11.82;2.70;;;;;;;6.10;100.00;101095.53;5008622;28;20484;-85
2023/12/26 08:35:23;;;;;;;9.43;3.00;;;;;;;6.19;100.00;101093.50;5028284;28;20467;-85
2023/12/26 08:37:48;;;;;;;10.57;3.17;;;;;;;6.09;100.00;101093.81;5037437;28;20057;-85
2023/12/26 08:40:14;;;;;;;12.85;3.78;;;;;;;6.16;100.00;101114.72;5027993;28;20697;-85
2023/12/26 08:42:39;;;;;;;15.43;3.78;;;;;;;6.16;100.00;101124.44;5032480;28;20037;-85
2023/12/26 08:45:05;;;;;;;10.38;3.13;;;;;;;5.94;100.00;101095.97;5023535;28;20092;-84
2023/12/26 08:47:30;;;;;;;12.77;3.38;;;;;;;6.15;100.00;101136.78;5035162;28;20033;-83
2023/12/26 08:49:56;;;;;;;10.30;3.30;;;;;;;5.99;100.00;101116.97;5017848;28;20044;-88
2023/12/26 08:52:23;;;;;;;12.75;3.38;;;;;;;6.05;100.00;101132.66;5023126;28;20049;-87
2023/12/26 08:54:49;;;;;;;12.13;3.65;;;;;;;6.18;100.00;101139.31;4994936;28;20088;-87
2023/12/26 08:57:14;;;;;;;13.65;3.28;;;;;;;6.21;100.00;101148.97;5022955;28;20046;-86
2023/12/26 08:59:40;;;;;;;15.68;3.65;;;;;;;6.19;100.00;101143.72;5027260;28;20494;-87
2023/12/26 09:02:05;;;;;;;13.73;4.35;;;;;;;5.94;100.00;101116.25;5021515;28;20454;-86
2023/12/26 09:04:31;;;;;;;13.75;3.40;;;;;;;6.09;100.00;101122.88;5000169;28;20030;-86
2023/12/26 09:06:56;;;;;;;14.20;3.75;;;;;;;6.23;100.00;101141.88;5025491;28;20034;-87
2023/12/26 09:09:21;;;;;;;12.32;3.63;;;;;;;6.24;100.00;101152.38;5027024;28;20100;-87
2023/12/26 09:11:47;;;;;;;13.77;3.95;;;;;;;5.83;100.00;101081.28;5042009;28;20029;-87
2023/12/26 09:14:13;;;;;;;10.85;3.08;;;;;;;5.98;100.00;101105.56;5013082;28;20108;-87
2023/12/26 09:16:40;;;;;;;10.90;3.20;;;;;;;6.41;100.00;101167.78;5042748;28;20026;-87
2023/12/26 09:19:05;;;;;;;16.02;4.00;;;;;;;6.45;100.00;101155.34;5032301;28;20033;-86
2023/12/26 09:21:31;;;;;;;15.90;3.58;;;;;;;6.87;100.00;101186.72;5035307;28;20056;-86
2023/12/26 09:23:56;;;;;;;10.90;3.40;;;;;;;6.99;100.00;101181.06;5042475;28;20033;-86
2023/12/26 09:26:22;;;;;;;12.35;3.50;;;;;;;6.98;100.00;101161.69;5019827;28;20108;-87
2023/12/26 09:28:49;;;;;;;12.15;3.92;;;;;;;7.30;100.00;101186.25;5010444;28;20033;-87
2023/12/26 09:31:14;;;;;;;9.02;3.00;;;;;;;7.34;100.00;101198.47;5048746;28;20091;-87
2023/12/26 09:33:40;;;;;;;12.85;3.55;;;;;;;7.27;100.00;101196.06;5038694;28;20049;-87
2023/12/26 09:36:06;;;;;;;8.40;2.90;;;;;;;7.03;100.00;101169.47;5019001;28;20037;-87
2023/12/26 09:38:31;;;;;;;14.52;3.20;;;;;;;7.05;100.00;101201.19;5034108;28;20045;-87
2023/12/26 09:40:57;;;;;;;12.95;3.40;;;;;;;6.92;100.00;101196.25;5034990;28;20494;-87
2023/12/26 09:43:22;;;;;;;9.15;3.25;;;;;;;6.97;100.00;101217.28;5042212;28;20025;-87
2023/12/26 09:45:48;;;;;;;11.93;3.42;;;;;;;6.94;100.00;101220.91;5036815;28;20036;-87
2023/12/26 09:48:15;;;;;;;11.88;3.55;;;;;;;6.88;100.00;101233.44;5030457;28;20591;-87
2023/12/26 09:50:41;;;;;;;12.45;4.38;;;;;;;6.64;100.00;101214.69;5016942;28;20044;-88
2023/12/26 09:53:09;;;;;;;11.45;3.17;;;;;;;6.71;100.00;101237.44;5017582;28;20531;-88
2023/12/26 09:55:35;;;;;;;10.68;3.42;;;;;;;6.74;100.00;101249.72;5026796;28;20043;-88
2023/12/26 09:58:02;;;;;;;11.85;2.97;;;;;;;6.73;100.00;101254.16;5030500;28;20159;-88
2023/12/26 10:00:27;;;;;;;12.25;3.58;;;;;;;6.49;100.00;101210.72;5041764;28;20411;-88
2023/12/26 10:02:53;;;;;;;11.70;4.03;;;;;;;6.54;100.00;101237.03;5037752;28;20067;-88
2023/12/26 10:05:19;;;;;;;13.25;4.13;;;;;;;6.63;100.00;101257.94;5020878;28;20072;-87
2023/12/26 10:07:45;;;;;;;14.57;3.28;;;;;;;6.41;100.00;101230.38;5030855;28;20029;-87
2023/12/26 10:10:28;;;;;;;13.93;3.88;;;;;;;6.60;100.00;101258.03;5028221;28;20314;-87
2023/12/26 10:12:54;;;;;;;15.68;3.72;;;;;;;6.63;100.00;101270.31;5021988;28;20045;-87
2023/12/26 10:15:20;;;;;;;10.45;3.83;;;;;;;6.59;100.00;101268.66;5018909;28;20311;-87
2023/12/26 10:17:46;;;;;;;10.77;3.20;;;;;;;6.59;100.00;101271.31;5025792;28;20042;-87
2023/12/26 10:20:14;;;;;;;9.52;3.28;;;;;;;6.59;100.00;101277.44;5017961;28;20431;-87
2023/12/26 10:22:44;;;;;;;11.10;3.60;;;;;;;6.63;100.00;101289.69;5015442;28;20511;-87
2023/12/26 10:25:11;;;;;;;11.18;4.05;;;;;;;6.59;100.00;101289.81;5015919;28;20376;-87
2023/12/26 10:27:37;;;;;;;10.35;3.70;;;;;;;6.64;100.00;101304.63;5024946;28;20021;-87
2023/12/26 10:30:03;;;;;;;11.77;3.63;;;;;;;6.69;100.00;101297.47;5029846;28;20041;-89
2023/12/26 10:32:31;;;;;;;12.15;3.60;;;;;;;6.69;100.00;101309.84;5034071;28;20064;-87
2023/12/26 10:35:12;;;;;;;15.50;3.85;;;;;;;6.34;100.00;101258.75;5035700;28;20056;-90
2023/12/26 10:37:37;;;;;;;19.10;3.97;;;;;;;6.71;100.00;101314.16;5015432;28;20069;-88
2023/12/26 10:40:04;;;;;;;10.38;3.30;;;;;;;6.74;100.00;101308.78;5031768;28;20061;-87
2023/12/26 10:42:36;;;;;;;12.05;4.15;;;;;;;6.78;100.00;101301.63;5035802;28;20038;-88
2023/12/26 10:45:05;;;;;;;14.23;4.03;;;;;;;6.82;100.00;101310.34;5036236;28;20037;-89
2023/12/26 10:47:32;;;;;;;14.88;4.20;;;;;;;6.23;100.00;101195.59;5019656;28;20037;-88
2023/12/26 10:50:06;;;;;;;13.55;4.57;;;;;;;6.35;100.00;101220.81;5020149;28;20111;-90
2023/12/26 10:52:39;;;;;;;14.40;3.80;;;;;;;6.69;100.00;101264.84;5037963;28;20052;-89
2023/12/26 10:55:07;;;;;;;9.77;3.53;;;;;;;6.91;100.00;101297.72;5037525;28;20029;-89
2023/12/26 10:57:36;;;;;;;15.55;4.97;;;;;;;6.63;100.00;101241.22;5037212;28;20554;-89
2023/12/26 13:51:43;;;;;;;8.82;3.05;;;;;;;7.59;100.00;101444.06;5016528;28;20041;-90
2023/12/26 13:54:10;;;;;;;9.80;2.95;;;;;;;7.77;100.00;101477.97;5030719;28;20087;-88
2023/12/26 13:56:36;;;;;;;12.48;3.10;;;;;;;7.78;100.00;101482.38;5021960;28;20038;-89
2023/12/26 13:59:02;;;;;;;11.35;3.28;;;;;;;7.72;100.00;101471.94;5031078;28;20077;-89
2023/12/26 14:01:28;;;;;;;8.23;3.38;;;;;;;7.79;100.00;101486.75;5023364;28;20033;-88
2023/12/26 14:03:55;;;;;;;10.45;3.30;;;;;;;7.72;100.00;101475.44;5019156;28;20061;-89
2023/12/26 14:06:21;;;;;;;12.73;3.55;;;;;;;7.81;100.00;101495.50;5024081;28;20041;-88
2023/12/26 14:08:51;;;;;;;9.82;3.13;;;;;;;7.68;100.00;101483.53;5021806;28;20137;-89